sensor_id;sensor_type;location;lat;lon;timestamp;pressure;altitude;pressure_sealevel;temperature;humidity
16738;BME280;17906;47.684;10.806;2023-04-06T00:01:58;93396.31;;;-6.77;82.70
16738;BME280;17906;47.684;10.806;2023-04-06T00:04:25;93396.75;;;-6.91;85.41
16738;BME280;17906;47.684;10.806;2023-04-06T00:06:51;93398.53;;;-6.82;85.12
16738;BME280;17906;47.684;10.806;2023-04-06T00:09:18;93394.50;;;-6.76;86.03
16738;BME280;17906;47.684;10.806;2023-04-06T00:11:44;93398.41;;;-6.80;86.42
16738;BME280;17906;47.684;10.806;2023-04-06T00:14:11;93391.03;;;-6.86;86.65
16738;BME280;17906;47.684;10.806;2023-04-06T00:16:37;93392.59;;;-6.93;86.20
16738;BME280;17906;47.684;10.806;2023-04-06T00:19:05;93391.31;;;-6.89;87.69
16738;BME280;17906;47.684;10.806;2023-04-06T00:21:32;93395.06;;;-6.82;87.19
16738;BME280;17906;47.684;10.806;2023-04-06T00:23:58;93397.28;;;-6.78;86.93
16738;BME280;17906;47.684;10.806;2023-04-06T00:26:25;93392.56;;;-6.74;85.51
16738;BME280;17906;47.684;10.806;2023-04-06T00:28:51;93386.06;;;-6.89;83.71
16738;BME280;17906;47.684;10.806;2023-04-06T00:31:18;93389.00;;;-7.02;86.24
16738;BME280;17906;47.684;10.806;2023-04-06T00:33:44;93388.00;;;-6.91;86.83
16738;BME280;17906;47.684;10.806;2023-04-06T00:36:12;93383.56;;;-6.81;84.27
16738;BME280;17906;47.684;10.806;2023-04-06T00:38:39;93385.91;;;-6.78;84.02
16738;BME280;17906;47.684;10.806;2023-04-06T00:41:05;93390.19;;;-6.77;84.70
16738;BME280;17906;47.684;10.806;2023-04-06T00:43:32;93384.53;;;-7.02;84.44
16738;BME280;17906;47.684;10.806;2023-04-06T00:45:58;93391.63;;;-7.02;84.16
16738;BME280;17906;47.684;10.806;2023-04-06T00:48:25;93389.81;;;-7.11;86.01
16738;BME280;17906;47.684;10.806;2023-04-06T00:50:52;93387.03;;;-7.10;86.21
16738;BME280;17906;47.684;10.806;2023-04-06T00:53:20;93381.38;;;-7.15;89.07
16738;BME280;17906;47.684;10.806;2023-04-06T00:55:46;93385.66;;;-7.14;89.25
16738;BME280;17906;47.684;10.806;2023-04-06T00:58:13;93376.09;;;-7.05;88.58
16738;BME280;17906;47.684;10.806;2023-04-06T01:00:40;93384.97;;;-7.06;88.28
16738;BME280;17906;47.684;10.806;2023-04-06T01:03:07;93384.69;;;-7.03;88.44
16738;BME280;17906;47.684;10.806;2023-04-06T01:05:34;93378.97;;;-6.89;86.23
16738;BME280;17906;47.684;10.806;2023-04-06T01:08:05;93378.59;;;-6.84;86.33
16738;BME280;17906;47.684;10.806;2023-04-06T01:10:33;93383.28;;;-6.78;85.98
16738;BME280;17906;47.684;10.806;2023-04-06T01:12:59;93380.09;;;-6.72;85.29
16738;BME280;17906;47.684;10.806;2023-04-06T01:15:26;93373.53;;;-6.58;85.59
16738;BME280;17906;47.684;10.806;2023-04-06T01:17:54;93374.25;;;-6.76;85.28
16738;BME280;17906;47.684;10.806;2023-04-06T01:20:21;93382.75;;;-6.91;86.73
16738;BME280;17906;47.684;10.806;2023-04-06T01:22:49;93377.63;;;-6.93;86.33
16738;BME280;17906;47.684;10.806;2023-04-06T01:25:16;93374.84;;;-7.01;88.27
16738;BME280;17906;47.684;10.806;2023-04-06T01:27:42;93377.34;;;-7.00;88.71
16738;BME280;17906;47.684;10.806;2023-04-06T01:30:09;93378.97;;;-6.89;87.57
16738;BME280;17906;47.684;10.806;2023-04-06T01:32:36;93367.06;;;-6.83;88.33
16738;BME280;17906;47.684;10.806;2023-04-06T01:35:03;93370.06;;;-6.69;88.22
16738;BME280;17906;47.684;10.806;2023-04-06T01:37:31;93360.66;;;-6.81;88.19
16738;BME280;17906;47.684;10.806;2023-04-06T01:40:00;93355.69;;;-6.74;88.50
16738;BME280;17906;47.684;10.806;2023-04-06T01:42:26;93363.31;;;-6.81;90.17
16738;BME280;17906;47.684;10.806;2023-04-06T01:44:53;93356.63;;;-6.75;90.41
16738;BME280;17906;47.684;10.806;2023-04-06T01:47:20;93356.59;;;-6.65;89.35
16738;BME280;17906;47.684;10.806;2023-04-06T01:49:46;93359.22;;;-6.56;89.14
16738;BME280;17906;47.684;10.806;2023-04-06T01:52:13;93353.09;;;-6.47;90.78
16738;BME280;17906;47.684;10.806;2023-04-06T01:54:40;93352.63;;;-6.32;90.20
16738;BME280;17906;47.684;10.806;2023-04-06T01:57:09;93357.03;;;-6.23;89.28
16738;BME280;17906;47.684;10.806;2023-04-06T01:59:36;93352.59;;;-6.23;88.88
16738;BME280;17906;47.684;10.806;2023-04-06T02:02:03;93356.16;;;-6.14;88.32
16738;BME280;17906;47.684;10.806;2023-04-06T02:04:29;93347.75;;;-6.00;88.63
16738;BME280;17906;47.684;10.806;2023-04-06T02:06:56;93360.22;;;-5.92;87.48
16738;BME280;17906;47.684;10.806;2023-04-06T02:09:23;93348.69;;;-5.91;87.73
16738;BME280;17906;47.684;10.806;2023-04-06T02:11:49;93351.38;;;-5.73;87.19
16738;BME280;17906;47.684;10.806;2023-04-06T02:14:17;93350.78;;;-5.67;86.64
16738;BME280;17906;47.684;10.806;2023-04-06T02:16:44;93348.44;;;-5.70;87.71
16738;BME280;17906;47.684;10.806;2023-04-06T02:19:10;93355.28;;;-5.77;87.99
16738;BME280;17906;47.684;10.806;2023-04-06T02:21:37;93341.59;;;-5.63;87.29
16738;BME280;17906;47.684;10.806;2023-04-06T02:24:04;93336.09;;;-5.52;87.83
16738;BME280;17906;47.684;10.806;2023-04-06T02:26:30;93329.53;;;-5.48;87.41
16738;BME280;17906;47.684;10.806;2023-04-06T02:28:57;93333.66;;;-5.45;88.39
16738;BME280;17906;47.684;10.806;2023-04-06T02:31:25;93329.84;;;-5.51;89.29
16738;BME280;17906;47.684;10.806;2023-04-06T02:33:51;93334.81;;;-5.48;89.96
16738;BME280;17906;47.684;10.806;2023-04-06T02:36:18;93323.03;;;-5.36;88.90
16738;BME280;17906;47.684;10.806;2023-04-06T02:38:45;93326.59;;;-5.27;89.21
16738;BME280;17906;47.684;10.806;2023-04-06T02:41:11;93332.78;;;-5.36;89.27
16738;BME280;17906;47.684;10.806;2023-04-06T02:43:37;93327.88;;;-5.31;89.10
16738;BME280;17906;47.684;10.806;2023-04-06T02:46:04;93321.53;;;-5.20;88.48
16738;BME280;17906;47.684;10.806;2023-04-06T02:48:32;93319.56;;;-5.18;88.68
16738;BME280;17906;47.684;10.806;2023-04-06T02:51:01;93317.53;;;-5.25;90.60
16738;BME280;17906;47.684;10.806;2023-04-06T02:53:27;93311.97;;;-5.22;91.11
16738;BME280;17906;47.684;10.806;2023-04-06T02:55:54;93312.56;;;-5.10;90.80
16738;BME280;17906;47.684;10.806;2023-04-06T02:58:21;93309.13;;;-5.02;90.45
16738;BME280;17906;47.684;10.806;2023-04-06T03:00:48;93313.97;;;-4.98;90.48
16738;BME280;17906;47.684;10.806;2023-04-06T03:03:14;93312.47;;;-5.00;90.31
16738;BME280;17906;47.684;10.806;2023-04-06T03:05:42;93306.34;;;-5.01;89.56
16738;BME280;17906;47.684;10.806;2023-04-06T03:08:09;93309.44;;;-5.05;90.54
16738;BME280;17906;47.684;10.806;2023-04-06T03:10:35;93317.38;;;-5.05;91.55
16738;BME280;17906;47.684;10.806;2023-04-06T03:13:02;93309.81;;;-5.00;90.50
16738;BME280;17906;47.684;10.806;2023-04-06T03:15:28;93308.16;;;-5.01;91.38
16738;BME280;17906;47.684;10.806;2023-04-06T03:17:55;93312.56;;;-4.84;90.70
16738;BME280;17906;47.684;10.806;2023-04-06T03:20:21;93304.31;;;-4.81;89.15
16738;BME280;17906;47.684;10.806;2023-04-06T03:22:49;93308.94;;;-4.83;89.40
16738;BME280;17906;47.684;10.806;2023-04-06T03:25:16;93309.63;;;-4.81;89.43
16738;BME280;17906;47.684;10.806;2023-04-06T03:27:42;93311.22;;;-4.88;90.06
16738;BME280;17906;47.684;10.806;2023-04-06T03:30:10;93311.38;;;-4.89;89.84
16738;BME280;17906;47.684;10.806;2023-04-06T03:32:36;93313.66;;;-4.95;89.14
16738;BME280;17906;47.684;10.806;2023-04-06T03:35:03;93323.22;;;-4.76;89.17
16738;BME280;17906;47.684;10.806;2023-04-06T03:37:30;93321.56;;;-4.77;89.38
16738;BME280;17906;47.684;10.806;2023-04-06T03:39:58;93313.31;;;-4.74;88.75
16738;BME280;17906;47.684;10.806;2023-04-06T03:42:24;93311.34;;;-4.72;88.46
16738;BME280;17906;47.684;10.806;2023-04-06T03:44:52;93318.13;;;-4.69;87.75
16738;BME280;17906;47.684;10.806;2023-04-06T03:47:18;93311.03;;;-4.69;88.54
16738;BME280;17906;47.684;10.806;2023-04-06T03:49:45;93315.88;;;-4.82;88.13
16738;BME280;17906;47.684;10.806;2023-04-06T03:52:12;93323.72;;;-4.98;89.24
16738;BME280;17906;47.684;10.806;2023-04-06T03:54:38;93319.19;;;-5.06;89.70
16738;BME280;17906;47.684;10.806;2023-04-06T03:57:06;93311.25;;;-5.06;89.67
16738;BME280;17906;47.684;10.806;2023-04-06T03:59:33;93316.22;;;-5.03;89.54
16738;BME280;17906;47.684;10.806;2023-04-06T04:01:59;93319.84;;;-5.04;90.24
16738;BME280;17906;47.684;10.806;2023-04-06T04:04:26;93311.88;;;-5.12;90.31
16738;BME280;17906;47.684;10.806;2023-04-06T04:06:52;93313.47;;;-5.19;90.40
16738;BME280;17906;47.684;10.806;2023-04-06T04:09:19;93315.34;;;-5.11;89.00
16738;BME280;17906;47.684;10.806;2023-04-06T04:11:45;93315.34;;;-5.11;88.74
16738;BME280;17906;47.684;10.806;2023-04-06T04:14:13;93313.47;;;-5.19;89.99
16738;BME280;17906;47.684;10.806;2023-04-06T04:16:40;93320.25;;;-5.16;89.38
16738;BME280;17906;47.684;10.806;2023-04-06T04:19:07;93315.03;;;-5.08;89.00
16738;BME280;17906;47.684;10.806;2023-04-06T04:21:33;93322.13;;;-5.09;90.09
16738;BME280;17906;47.684;10.806;2023-04-06T04:24:00;93326.19;;;-5.14;91.05
16738;BME280;17906;47.684;10.806;2023-04-06T04:26:26;93321.44;;;-5.46;89.84
16738;BME280;17906;47.684;10.806;2023-04-06T04:28:53;93319.28;;;-5.51;89.77
16738;BME280;17906;47.684;10.806;2023-04-06T04:31:21;93319.94;;;-5.49;90.03
16738;BME280;17906;47.684;10.806;2023-04-06T04:33:48;93321.69;;;-5.40;89.64
16738;BME280;17906;47.684;10.806;2023-04-06T04:36:14;93322.28;;;-5.46;91.19
16738;BME280;17906;47.684;10.806;2023-04-06T04:38:41;93321.16;;;-5.43;91.32
16738;BME280;17906;47.684;10.806;2023-04-06T04:41:07;93316.09;;;-5.37;92.01
16738;BME280;17906;47.684;10.806;2023-04-06T04:43:34;93315.72;;;-5.42;92.19
16738;BME280;17906;47.684;10.806;2023-04-06T04:46:00;93321.69;;;-5.40;92.74
16738;BME280;17906;47.684;10.806;2023-04-06T04:48:30;93314.28;;;-5.36;91.84
16738;BME280;17906;47.684;10.806;2023-04-06T04:50:56;93323.94;;;-5.27;91.92
16738;BME280;17906;47.684;10.806;2023-04-06T04:53:23;93329.50;;;-5.12;90.65
16738;BME280;17906;47.684;10.806;2023-04-06T04:55:49;93329.97;;;-4.99;90.88
16738;BME280;17906;47.684;10.806;2023-04-06T04:58:16;93326.34;;;-4.98;90.76
16738;BME280;17906;47.684;10.806;2023-04-06T05:00:44;93326.78;;;-5.03;91.36
16738;BME280;17906;47.684;10.806;2023-04-06T05:03:16;93328.38;;;-4.92;91.01
16738;BME280;17906;47.684;10.806;2023-04-06T05:05:46;93334.63;;;-4.93;90.43
16738;BME280;17906;47.684;10.806;2023-04-06T05:08:12;93324.44;;;-4.88;90.61
16738;BME280;17906;47.684;10.806;2023-04-06T05:10:39;93332.13;;;-4.77;90.34
16738;BME280;17906;47.684;10.806;2023-04-06T05:13:06;93338.25;;;-4.76;90.04
16738;BME280;17906;47.684;10.806;2023-04-06T05:15:32;93335.28;;;-4.73;89.12
16738;BME280;17906;47.684;10.806;2023-04-06T05:18:00;93331.34;;;-4.69;89.39
16738;BME280;17906;47.684;10.806;2023-04-06T05:20:26;93329.34;;;-4.75;90.45
16738;BME280;17906;47.684;10.806;2023-04-06T05:22:55;93337.06;;;-4.56;88.91
16738;BME280;17906;47.684;10.806;2023-04-06T05:25:21;93338.94;;;-4.48;88.34
16738;BME280;17906;47.684;10.806;2023-04-06T05:27:48;93341.56;;;-4.48;89.41
16738;BME280;17906;47.684;10.806;2023-04-06T05:30:15;93336.50;;;-4.42;88.22
16738;BME280;17906;47.684;10.806;2023-04-06T05:32:41;93348.75;;;-4.41;90.60
16738;BME280;17906;47.684;10.806;2023-04-06T05:35:09;93334.91;;;-4.35;89.23
16738;BME280;17906;47.684;10.806;2023-04-06T05:37:36;93339.53;;;-4.28;90.65
16738;BME280;17906;47.684;10.806;2023-04-06T05:40:05;93335.81;;;-4.18;90.28
16738;BME280;17906;47.684;10.806;2023-04-06T05:42:36;93346.72;;;-4.21;89.99
16738;BME280;17906;47.684;10.806;2023-04-06T05:45:03;93340.09;;;-4.25;90.03
16738;BME280;17906;47.684;10.806;2023-04-06T05:47:32;93338.06;;;-4.31;90.89
16738;BME280;17906;47.684;10.806;2023-04-06T05:49:59;93347.22;;;-4.17;90.51
16738;BME280;17906;47.684;10.806;2023-04-06T05:52:26;93348.19;;;-3.92;90.60
16738;BME280;17906;47.684;10.806;2023-04-06T05:54:52;93346.91;;;-3.72;89.88
16738;BME280;17906;47.684;10.806;2023-04-06T05:57:20;93350.09;;;-3.68;88.15
16738;BME280;17906;47.684;10.806;2023-04-06T05:59:47;93341.19;;;-3.59;88.07
16738;BME280;17906;47.684;10.806;2023-04-06T06:02:13;93339.38;;;-3.59;87.64
16738;BME280;17906;47.684;10.806;2023-04-06T06:04:40;93349.97;;;-3.51;88.90
16738;BME280;17906;47.684;10.806;2023-04-06T06:07:06;93350.69;;;-3.32;89.63
16738;BME280;17906;47.684;10.806;2023-04-06T06:09:33;93352.53;;;-3.33;90.42
16738;BME280;17906;47.684;10.806;2023-04-06T06:12:00;93344.25;;;-3.22;88.66
16738;BME280;17906;47.684;10.806;2023-04-06T06:14:28;93355.22;;;-3.08;87.49
16738;BME280;17906;47.684;10.806;2023-04-06T06:16:55;93358.69;;;-3.16;89.42
16738;BME280;17906;47.684;10.806;2023-04-06T06:19:22;93361.53;;;-3.01;89.63
16738;BME280;17906;47.684;10.806;2023-04-06T06:21:48;93355.22;;;-3.00;87.65
16738;BME280;17906;47.684;10.806;2023-04-06T06:24:15;93358.56;;;-2.90;87.29
16738;BME280;17906;47.684;10.806;2023-04-06T06:26:41;93358.06;;;-2.77;86.74
16738;BME280;17906;47.684;10.806;2023-04-06T06:29:08;93353.44;;;-2.59;87.29
16738;BME280;17906;47.684;10.806;2023-04-06T06:31:36;93350.75;;;-2.35;86.30
16738;BME280;17906;47.684;10.806;2023-04-06T06:34:03;72123.38;;;-2.39;85.81
16738;BME280;17906;47.684;10.806;2023-04-06T06:36:29;93352.22;;;-2.24;85.62
16738;BME280;17906;47.684;10.806;2023-04-06T06:38:56;93352.03;;;-2.06;85.06
16738;BME280;17906;47.684;10.806;2023-04-06T06:41:23;93347.19;;;-1.86;83.75
16738;BME280;17906;47.684;10.806;2023-04-06T06:43:50;93342.50;;;-1.84;80.37
16738;BME280;17906;47.684;10.806;2023-04-06T06:46:16;93342.63;;;-1.69;81.37
16738;BME280;17906;47.684;10.806;2023-04-06T06:48:44;93343.53;;;-1.54;82.76
16738;BME280;17906;47.684;10.806;2023-04-06T06:51:11;93351.09;;;-1.35;83.29
16738;BME280;17906;47.684;10.806;2023-04-06T06:53:37;93352.53;;;-1.24;84.90
16738;BME280;17906;47.684;10.806;2023-04-06T06:56:05;93350.31;;;-1.13;84.94
16738;BME280;17906;47.684;10.806;2023-04-06T06:58:31;93356.16;;;-0.86;82.69
16738;BME280;17906;47.684;10.806;2023-04-06T07:00:58;59087.34;;;-146.04;100.00
16738;BME280;17906;47.684;10.806;2023-04-06T07:03:25;59087.34;;;-146.04;100.00
16738;BME280;17906;47.684;10.806;2023-04-06T07:05:53;59087.34;;;-146.04;100.00
16738;BME280;17906;47.684;10.806;2023-04-06T07:08:20;59087.34;;;-146.04;100.00
16738;BME280;17906;47.684;10.806;2023-04-06T07:10:47;59087.34;;;-146.04;100.00
16738;BME280;17906;47.684;10.806;2023-04-06T07:13:13;59087.34;;;-146.04;100.00
16738;BME280;17906;47.684;10.806;2023-04-06T07:15:44;59087.34;;;-146.04;100.00
16738;BME280;17906;47.684;10.806;2023-04-06T07:18:11;59087.34;;;-146.04;100.00
16738;BME280;17906;47.684;10.806;2023-04-06T07:20:38;59087.34;;;-146.04;100.00
16738;BME280;17906;47.684;10.806;2023-04-06T07:23:06;59087.34;;;-146.04;100.00
16738;BME280;17906;47.684;10.806;2023-04-06T07:25:33;93354.41;;;-0.79;80.59
16738;BME280;17906;47.684;10.806;2023-04-06T07:27:59;93337.53;;;4.37;62.98
16738;BME280;17906;47.684;10.806;2023-04-06T07:30:26;93336.00;;;4.81;58.33
16738;BME280;17906;47.684;10.806;2023-04-06T07:32:54;93338.84;;;4.99;55.65
16738;BME280;17906;47.684;10.806;2023-04-06T07:35:21;93338.41;;;5.02;54.51
16738;BME280;17906;47.684;10.806;2023-04-06T07:37:48;93350.81;;;4.96;52.13
16738;BME280;17906;47.684;10.806;2023-04-06T07:40:16;93342.94;;;5.08;49.11
16738;BME280;17906;47.684;10.806;2023-04-06T07:42:43;93343.47;;;6.00;49.50
16738;BME280;17906;47.684;10.806;2023-04-06T07:45:10;93333.69;;;6.37;46.07
16738;BME280;17906;47.684;10.806;2023-04-06T07:47:36;93335.88;;;6.90;44.44
16738;BME280;17906;47.684;10.806;2023-04-06T07:50:03;93331.13;;;7.88;42.42
16738;BME280;17906;47.684;10.806;2023-04-06T07:52:30;93332.22;;;8.76;38.93
16738;BME280;17906;47.684;10.806;2023-04-06T07:54:58;93327.16;;;9.26;38.66
16738;BME280;17906;47.684;10.806;2023-04-06T07:57:26;93329.06;;;9.95;36.29
16738;BME280;17906;47.684;10.806;2023-04-06T07:59:52;93317.03;;;10.31;35.23
16738;BME280;17906;47.684;10.806;2023-04-06T08:02:19;93325.00;;;10.54;33.79
16738;BME280;17906;47.684;10.806;2023-04-06T08:04:45;93313.31;;;11.04;33.25
16738;BME280;17906;47.684;10.806;2023-04-06T08:07:12;93310.16;;;11.29;29.71
16738;BME280;17906;47.684;10.806;2023-04-06T08:09:38;93312.06;;;11.50;29.18
16738;BME280;17906;47.684;10.806;2023-04-06T08:12:05;93312.16;;;11.82;31.18
16738;BME280;17906;47.684;10.806;2023-04-06T08:14:34;93315.50;;;11.68;30.32
16738;BME280;17906;47.684;10.806;2023-04-06T08:17:01;93314.41;;;11.90;31.26
16738;BME280;17906;47.684;10.806;2023-04-06T08:19:28;93318.75;;;12.35;31.84
16738;BME280;17906;47.684;10.806;2023-04-06T08:21:54;93318.88;;;12.24;28.35
16738;BME280;17906;47.684;10.806;2023-04-06T08:24:21;93311.59;;;12.29;27.75
16738;BME280;17906;47.684;10.806;2023-04-06T08:26:47;59087.34;;;-146.04;100.00
16738;BME280;17906;47.684;10.806;2023-04-06T08:29:14;59087.34;;;-146.04;100.00
16738;BME280;17906;47.684;10.806;2023-04-06T08:31:43;59087.34;;;-146.04;100.00
16738;BME280;17906;47.684;10.806;2023-04-06T08:34:09;59087.34;;;-146.04;100.00
16738;BME280;17906;47.684;10.806;2023-04-06T08:36:36;59087.34;;;-146.04;100.00
16738;BME280;17906;47.684;10.806;2023-04-06T08:39:03;59087.34;;;-146.04;100.00
16738;BME280;17906;47.684;10.806;2023-04-06T08:41:30;59087.34;;;-146.04;100.00
16738;BME280;17906;47.684;10.806;2023-04-06T08:43:58;59087.34;;;-146.04;100.00
16738;BME280;17906;47.684;10.806;2023-04-06T08:46:26;93314.13;;;12.36;27.36
16738;BME280;17906;47.684;10.806;2023-04-06T08:48:57;93321.13;;;11.17;30.75
16738;BME280;17906;47.684;10.806;2023-04-06T08:51:24;93310.72;;;9.68;30.71
16738;BME280;17906;47.684;10.806;2023-04-06T08:53:52;93336.47;;;7.95;35.09
16738;BME280;17906;47.684;10.806;2023-04-06T08:56:20;93339.22;;;7.58;35.38
16738;BME280;17906;47.684;10.806;2023-04-06T08:58:47;93336.25;;;7.30;35.89
16738;BME280;17906;47.684;10.806;2023-04-06T09:01:17;93336.25;;;7.30;35.89
16738;BME280;17906;47.684;10.806;2023-04-06T09:03:44;93343.78;;;7.88;34.18
16738;BME280;17906;47.684;10.806;2023-04-06T09:06:13;59087.34;;;-146.04;100.00
16738;BME280;17906;47.684;10.806;2023-04-06T09:08:41;59087.34;;;-146.04;100.00
16738;BME280;17906;47.684;10.806;2023-04-06T09:11:07;59087.34;;;-146.04;100.00
16738;BME280;17906;47.684;10.806;2023-04-06T09:13:45;59087.34;;;-146.04;100.00
16738;BME280;17906;47.684;10.806;2023-04-06T09:16:12;59087.34;;;-146.04;100.00
16738;BME280;17906;47.684;10.806;2023-04-06T09:18:39;93330.47;;;7.75;31.60
16738;BME280;17906;47.684;10.806;2023-04-06T09:21:06;93323.22;;;7.75;33.42
16738;BME280;17906;47.684;10.806;2023-04-06T09:23:34;93325.00;;;7.51;33.63
16738;BME280;17906;47.684;10.806;2023-04-06T09:26:09;93333.19;;;7.08;35.84
16738;BME280;17906;47.684;10.806;2023-04-06T09:28:43;93337.41;;;7.71;35.08
16738;BME280;17906;47.684;10.806;2023-04-06T09:31:10;59087.34;;;-146.04;100.00
16738;BME280;17906;47.684;10.806;2023-04-06T09:33:38;59087.34;;;-146.04;100.00
16738;BME280;17906;47.684;10.806;2023-04-06T09:36:06;59087.34;;;-146.04;100.00
16738;BME280;17906;47.684;10.806;2023-04-06T09:38:32;59087.34;;;-146.04;100.00
16738;BME280;17906;47.684;10.806;2023-04-06T09:41:00;59087.34;;;-146.04;100.00
16738;BME280;17906;47.684;10.806;2023-04-06T09:43:27;93337.41;;;7.71;35.08
16738;BME280;17906;47.684;10.806;2023-04-06T09:45:55;93305.28;;;12.51;26.96
16738;BME280;17906;47.684;10.806;2023-04-06T09:48:22;93302.69;;;12.66;26.21
16738;BME280;17906;47.684;10.806;2023-04-06T09:50:53;93299.72;;;13.10;25.84
16738;BME280;17906;47.684;10.806;2023-04-06T09:53:25;93287.25;;;12.76;24.70
16738;BME280;17906;47.684;10.806;2023-04-06T09:55:57;93283.56;;;12.93;26.10
16738;BME280;17906;47.684;10.806;2023-04-06T09:58:25;93289.91;;;12.66;25.75
16738;BME280;17906;47.684;10.806;2023-04-06T10:00:56;93289.91;;;12.66;25.75
16738;BME280;17906;47.684;10.806;2023-04-06T10:03:31;93290.06;;;11.08;27.88
16738;BME280;17906;47.684;10.806;2023-04-06T10:06:06;93309.22;;;9.89;31.16
16738;BME280;17906;47.684;10.806;2023-04-06T10:08:38;93302.84;;;9.15;33.25
16738;BME280;17906;47.684;10.806;2023-04-06T10:11:07;93313.78;;;8.85;34.40
16738;BME280;17906;47.684;10.806;2023-04-06T10:13:35;93317.63;;;8.19;33.59
16738;BME280;17906;47.684;10.806;2023-04-06T10:16:02;93317.63;;;8.19;33.96
16738;BME280;17906;47.684;10.806;2023-04-06T10:18:30;93313.94;;;7.23;34.35
16738;BME280;17906;47.684;10.806;2023-04-06T10:21:00;93314.16;;;7.03;34.39
16738;BME280;17906;47.684;10.806;2023-04-06T10:23:32;93314.16;;;7.03;34.39
16738;BME280;17906;47.684;10.806;2023-04-06T10:26:01;93314.16;;;7.03;34.39
16738;BME280;17906;47.684;10.806;2023-04-06T10:28:31;93314.16;;;7.03;34.39
16738;BME280;17906;47.684;10.806;2023-04-06T10:31:02;93294.59;;;8.98;34.81
16738;BME280;17906;47.684;10.806;2023-04-06T10:33:30;59087.34;;;-146.04;100.00
16738;BME280;17906;47.684;10.806;2023-04-06T10:35:57;59087.34;;;-146.04;100.00
16738;BME280;17906;47.684;10.806;2023-04-06T10:38:33;93290.25;;;9.60;31.70
16738;BME280;17906;47.684;10.806;2023-04-06T10:41:03;93282.94;;;10.35;31.05
16738;BME280;17906;47.684;10.806;2023-04-06T10:43:33;93282.94;;;10.35;31.05
16738;BME280;17906;47.684;10.806;2023-04-06T10:46:02;93281.88;;;10.19;31.61
16738;BME280;17906;47.684;10.806;2023-04-06T10:48:36;93289.75;;;10.21;27.61
16738;BME280;17906;47.684;10.806;2023-04-06T10:51:07;93279.16;;;10.53;28.10
16738;BME280;17906;47.684;10.806;2023-04-06T10:53:34;93280.47;;;10.84;29.90
16738;BME280;17906;47.684;10.806;2023-04-06T10:56:02;93274.22;;;10.66;30.05
16738;BME280;17906;47.684;10.806;2023-04-06T10:58:29;93274.22;;;11.22;31.73
16738;BME280;17906;47.684;10.806;2023-04-06T11:00:56;93269.97;;;11.75;29.92
16738;BME280;17906;47.684;10.806;2023-04-06T11:03:24;59087.34;;;-146.04;100.00
16738;BME280;17906;47.684;10.806;2023-04-06T11:05:51;59087.34;;;-146.04;100.00
16738;BME280;17906;47.684;10.806;2023-04-06T11:08:31;59087.34;;;-146.04;100.00
16738;BME280;17906;47.684;10.806;2023-04-06T11:11:08;93281.66;;;9.23;33.20
16738;BME280;17906;47.684;10.806;2023-04-06T11:13:40;93288.91;;;8.48;33.02
16738;BME280;17906;47.684;10.806;2023-04-06T11:16:07;93293.88;;;8.09;35.08
16738;BME280;17906;47.684;10.806;2023-04-06T11:18:46;93285.28;;;8.00;35.06
16738;BME280;17906;47.684;10.806;2023-04-06T11:21:13;93284.81;;;7.62;34.91
16738;BME280;17906;47.684;10.806;2023-04-06T11:23:40;93285.66;;;7.74;36.22
16738;BME280;17906;47.684;10.806;2023-04-06T11:26:10;93279.09;;;8.11;35.81
16738;BME280;17906;47.684;10.806;2023-04-06T11:28:37;93263.84;;;8.05;33.92
16738;BME280;17906;47.684;10.806;2023-04-06T11:31:03;93260.66;;;8.08;34.75
16738;BME280;17906;47.684;10.806;2023-04-06T11:33:35;93269.94;;;7.71;33.99
16738;BME280;17906;47.684;10.806;2023-04-06T11:36:03;59087.34;;;-146.04;100.00
16738;BME280;17906;47.684;10.806;2023-04-06T11:38:30;59087.34;;;-146.04;100.00
16738;BME280;17906;47.684;10.806;2023-04-06T11:40:57;59087.34;;;-146.04;100.00
16738;BME280;17906;47.684;10.806;2023-04-06T11:43:27;59087.34;;;-146.04;100.00
16738;BME280;17906;47.684;10.806;2023-04-06T11:45:59;59087.34;;;-146.04;100.00
16738;BME280;17906;47.684;10.806;2023-04-06T11:48:26;59087.34;;;-146.04;100.00
16738;BME280;17906;47.684;10.806;2023-04-06T11:50:55;59087.34;;;-146.04;100.00
16738;BME280;17906;47.684;10.806;2023-04-06T11:53:23;59087.34;;;-146.04;100.00
16738;BME280;17906;47.684;10.806;2023-04-06T11:55:50;93269.94;;;7.71;33.99
16738;BME280;17906;47.684;10.806;2023-04-06T11:58:17;93233.84;;;10.87;28.96
16738;BME280;17906;47.684;10.806;2023-04-06T12:00:43;93234.72;;;10.03;28.96
16738;BME280;17906;47.684;10.806;2023-04-06T12:03:10;93245.00;;;9.73;31.32
16738;BME280;17906;47.684;10.806;2023-04-06T12:05:37;93247.50;;;9.34;31.55
16738;BME280;17906;47.684;10.806;2023-04-06T12:08:04;93242.66;;;8.96;32.64
16738;BME280;17906;47.684;10.806;2023-04-06T12:10:32;93238.09;;;8.85;31.13
16738;BME280;17906;47.684;10.806;2023-04-06T12:12:58;93240.22;;;9.35;31.96
16738;BME280;17906;47.684;10.806;2023-04-06T12:15:25;93241.88;;;10.09;32.87
16738;BME280;17906;47.684;10.806;2023-04-06T12:17:52;93234.56;;;10.10;31.59
16738;BME280;17906;47.684;10.806;2023-04-06T12:20:18;93227.59;;;9.97;30.34
16738;BME280;17906;47.684;10.806;2023-04-06T12:22:45;59087.34;;;-146.04;100.00
16738;BME280;17906;47.684;10.806;2023-04-06T12:25:11;59087.34;;;-146.04;100.00
16738;BME280;17906;47.684;10.806;2023-04-06T12:27:39;59087.34;;;-146.04;100.00
16738;BME280;17906;47.684;10.806;2023-04-06T12:30:07;59087.34;;;-146.04;100.00
16738;BME280;17906;47.684;10.806;2023-04-06T12:32:34;59087.34;;;-146.04;100.00
16738;BME280;17906;47.684;10.806;2023-04-06T12:35:01;93234.19;;;9.73;32.13
16738;BME280;17906;47.684;10.806;2023-04-06T12:37:27;93210.38;;;10.20;32.13
16738;BME280;17906;47.684;10.806;2023-04-06T12:39:54;93201.28;;;10.48;31.51
16738;BME280;17906;47.684;10.806;2023-04-06T12:42:20;93207.69;;;10.59;30.16
16738;BME280;17906;47.684;10.806;2023-04-06T12:44:48;93197.53;;;10.71;33.34
16738;BME280;17906;47.684;10.806;2023-04-06T12:47:15;93201.69;;;10.57;31.71
16738;BME280;17906;47.684;10.806;2023-04-06T12:49:41;93203.16;;;10.64;31.45